Main page
METAR-TAF:

METAR-TAF

Airports :

Hanford Municipal Airport

Hanford, California, United States

latitude: 36-19-07N, longitude: 119-37-44W, elevation: 243 ft

Current weather observation

The report was made 39 minutes ago, at 05:53 UTC
Wind 8 mph from the Southeast
Temperature 55°F
Humidity 88%
Pressure 29.95 in. Hg
Visibility: 10 miles
Few clouds at a height of 6000 ft
Scattered clouds at a height of 7500 ft
Overcast at a height of 11000 ft

METAR: KHJO 020553Z AUTO 13007KT 10SM FEW060 SCT075 OVC110 13/11 A2995 RMK AO2 RAE05 SLP145 P0000 60000 T01280106 10178 20128 50003

Time: 22:32 (06:32 UTC)


TAF: missing

Weather observations and forecasts of more than 4000 airports (METAR and TAF reports).

The available stations are represented by yellow and red dots on the map.

Hover mouse over dot to see the name of the station.

Then click to see weather observations and forecasts.

To change the map : click on the green buttons with a black cross to zoom in, on the green button with a dash to zoom out, or on the green arrows for adjacent maps.


METAR-TAF: